KACJ

Jimmy Carter Regional Airport

Americus, Georgia, USA
METAR KACJ 250035Z AUTO 08005KT 10SM SCT015 23/20 A3006 RMK AO2 LTG DSNT SW
Observed Flight Rules
May-25 @ 00:35 UTC (19 minutes ago) Visual Flight Rules
Wind Visibility Clouds
80° at 5 knots 10 miles
  • Scattered at 1,500' AGL
Temperatures Readings
Current 23°C / 73°F
Dewpoint 20°C / 68°F
Humidity 83%
Altimeter 30.06" Hg
Pressure 1018 hPa
Elevation 143
METAR KACJ 250035Z AUTO 08005KT 10SM SCT015 23/20 A3006 RMK AO2 LTG DSNT SW
Observed Flight Rules
May-25 @ 00:35 UTC
(19 minutes ago)
VFR
Wind Visibility
80° at 5 knots 10 miles
Clouds
  • Scattered at 1,500' AGL
Temperature Dewpoint
23°C / 73°F 20°C / 68°F
Humidity Altimeter Pressure
83% 30.06" Hg 1018 hPa